createdAt,value
2022-10-01T00:00:51.390Z,97615.47
2022-10-01T00:03:18.150Z,97610.16
2022-10-01T00:05:44.789Z,97606.94
2022-10-01T00:08:11.710Z,97608.81
2022-10-01T00:10:41.805Z,97601.91
2022-10-01T00:13:08.573Z,97599.25
2022-10-01T00:15:39.207Z,97594.22
2022-10-01T00:18:05.822Z,97588.09
2022-10-01T00:20:32.371Z,97587.25
2022-10-01T00:22:58.815Z,97582.22
2022-10-01T00:25:25.481Z,97580.63
2022-10-01T00:27:51.966Z,97577.19
2022-10-01T00:30:18.471Z,97571.06
2022-10-01T00:32:44.914Z,97575.88
2022-10-01T00:35:12.296Z,97572.69
2022-10-01T00:37:38.859Z,97571.13
2022-10-01T00:40:06.039Z,97569.78
2022-10-01T00:42:32.693Z,97559.69
2022-10-01T00:45:01.523Z,97561.06
2022-10-01T00:47:40.938Z,97560.28
2022-10-01T00:50:28.745Z,97556.03
2022-10-01T00:52:59.210Z,97547.78
2022-10-01T00:55:27.730Z,97544.34
2022-10-01T00:57:54.953Z,97543.56
2022-10-01T01:00:21.442Z,97541.69
2022-10-01T01:02:47.964Z,97534.75
2022-10-01T01:05:14.739Z,97528.63
2022-10-01T01:07:45.263Z,97525.44
2022-10-01T01:10:13.367Z,97528.91
2022-10-01T01:13:18.385Z,97526.25
2022-10-01T01:15:52.711Z,97525.44
2022-10-01T01:18:41.629Z,97523.88
2022-10-01T01:21:41.038Z,97519.09
2022-10-01T01:24:19.659Z,97516.13
2022-10-01T01:26:55.280Z,97514.56
2022-10-01T01:29:54.225Z,97512.69
2022-10-01T01:32:50.405Z,97506.06
2022-10-01T01:35:31.290Z,97503.41
2022-10-01T01:38:02.068Z,97501.53
2022-10-01T01:40:28.648Z,97493.00
2022-10-01T01:42:55.723Z,97486.91
2022-10-01T01:45:24.503Z,97481.84
2022-10-01T01:47:51.187Z,97487.19
2022-10-01T01:50:17.847Z,97481.84
2022-10-01T01:52:44.356Z,97481.34
2022-10-01T01:55:10.855Z,97462.16
2022-10-01T01:57:39.918Z,97470.69
2022-10-01T02:00:06.964Z,97464.59
2022-10-01T02:02:33.736Z,97465.97
2022-10-01T02:05:02.126Z,97470.75
2022-10-01T02:07:53.531Z,97460.41
2022-10-01T02:10:41.726Z,97451.31
2022-10-01T02:13:24.072Z,97444.72
2022-10-01T02:16:08.241Z,97439.38
2022-10-01T02:18:37.172Z,97450.28
2022-10-01T02:21:12.425Z,97435.69
2022-10-01T02:23:43.055Z,97426.13
2022-10-01T02:26:12.640Z,97431.72
2022-10-01T02:28:39.494Z,97433.59
2022-10-01T02:31:06.087Z,97425.09
2022-10-01T02:33:34.182Z,97415.00
2022-10-01T02:36:00.962Z,97408.59
2022-10-01T02:38:27.431Z,97397.44
2022-10-01T02:40:55.552Z,97398.78
2022-10-01T02:43:28.088Z,97378.56
2022-10-01T02:45:57.658Z,97375.63
2022-10-01T02:48:24.186Z,97379.38
2022-10-01T02:50:55.087Z,97379.66
2022-10-01T02:53:31.657Z,97377.28
2022-10-01T02:55:58.481Z,97366.63
2022-10-01T02:58:24.940Z,97357.34
2022-10-01T03:00:51.731Z,97371.44
2022-10-01T03:03:18.224Z,97362.16
2022-10-01T03:05:44.662Z,97365.88
2022-10-01T03:08:11.122Z,97356.84
2022-10-01T03:10:37.579Z,97358.19
2022-10-01T03:13:06.491Z,97353.16
2022-10-01T03:15:33.075Z,97341.41
2022-10-01T03:17:59.556Z,97344.88
2022-10-01T03:20:26.839Z,97347.81
2022-10-01T03:22:53.397Z,97346.25
2022-10-01T03:25:19.856Z,97348.09
2022-10-01T03:27:46.594Z,97339.59
2022-10-01T03:30:13.201Z,97331.63
2022-10-01T03:32:39.813Z,97334.28
2022-10-01T03:35:06.780Z,97318.03
2022-10-01T03:37:33.288Z,97321.47
2022-10-01T03:39:59.829Z,97311.13
2022-10-01T03:42:26.287Z,97315.66
2022-10-01T03:44:52.975Z,97313.28
2022-10-01T03:47:19.424Z,97313.53
2022-10-01T03:49:45.893Z,97305.06
2022-10-01T03:52:12.599Z,97294.72
2022-10-01T03:54:39.355Z,97299.75
2022-10-01T03:57:06.760Z,97284.84
2022-10-01T03:59:33.218Z,97271.03
2022-10-01T04:02:00.046Z,97266.78
2022-10-01T04:04:28.911Z,97268.13
2022-10-01T04:06:55.442Z,97255.13
2022-10-01T04:09:21.895Z,97249.88
2022-10-01T04:11:48.705Z,97256.19
2022-10-01T04:14:15.296Z,97248.50
2022-10-01T04:16:41.763Z,97242.41
2022-10-01T04:19:08.197Z,97241.59
2022-10-01T04:21:35.308Z,97232.31
2022-10-01T04:24:05.047Z,97211.59
2022-10-01T04:26:31.740Z,97216.91
2022-10-01T04:28:58.201Z,97207.06
2022-10-01T04:31:25.112Z,97204.69
2022-10-01T04:33:55.534Z,97195.91
2022-10-01T04:36:22.134Z,97194.06
2022-10-01T04:38:51.304Z,97182.91
2022-10-01T04:41:17.769Z,97197.00
2022-10-01T04:43:44.240Z,97192.19
2022-10-01T04:46:10.711Z,97183.47
2022-10-01T04:48:37.176Z,97183.19
2022-10-01T04:51:03.711Z,97178.16
2022-10-01T04:53:30.514Z,97176.28
2022-10-01T04:55:56.989Z,97178.94
2022-10-01T04:58:23.465Z,97178.16
2022-10-01T05:00:50.346Z,97182.94
2022-10-01T05:03:17.536Z,97171.81
2022-10-01T05:05:43.982Z,97162.78
2022-10-01T05:08:10.489Z,97144.75
2022-10-01T05:10:37.127Z,97149.84
2022-10-01T05:13:03.649Z,97141.56
2022-10-01T05:15:30.525Z,97146.88
2022-10-01T05:17:57.087Z,97133.59
2022-10-01T05:20:25.942Z,97140.00
2022-10-01T05:22:52.542Z,97134.69
2022-10-01T05:25:19.144Z,97127.78
2022-10-01T05:27:46.004Z,97127.78
2022-10-01T05:30:13.294Z,97135.22
2022-10-01T05:32:39.788Z,97126.47
2022-10-01T05:35:07.064Z,97131.78
2022-10-01T05:37:33.911Z,97126.75
2022-10-01T05:40:00.914Z,97120.91
2022-10-01T05:42:27.379Z,97130.50
2022-10-01T05:44:53.860Z,97125.19
2022-10-01T05:47:20.945Z,97127.03
2022-10-01T05:49:47.473Z,97119.88
2022-10-01T05:52:14.758Z,97119.34
2022-10-01T05:54:41.239Z,97106.06
2022-10-01T05:57:07.961Z,97122.00
2022-10-01T05:59:34.953Z,97118.25
2022-10-01T06:02:01.538Z,97106.34
2022-10-01T06:04:28.038Z,97110.09
2022-10-01T06:06:55.035Z,97105.81
2022-10-01T06:09:21.465Z,97100.31
2022-10-01T06:11:48.892Z,97113.00
2022-10-01T06:14:16.062Z,97104.53
2022-10-01T06:16:42.680Z,97110.28
2022-10-01T06:19:09.189Z,97109.16
2022-10-01T06:21:36.146Z,97107.78
2022-10-01T06:24:02.819Z,97106.94
2022-10-01T06:26:29.331Z,97107.41
2022-10-01T06:28:56.601Z,97103.91
2022-10-01T06:31:23.274Z,97105.19
2022-10-01T06:33:49.821Z,97105.19
2022-10-01T06:36:16.266Z,97109.94
2022-10-01T06:38:43.292Z,97097.81
2022-10-01T06:41:09.879Z,97099.13
2022-10-01T06:43:36.343Z,97105.25
2022-10-01T06:46:03.799Z,97101.66
2022-10-01T06:48:31.661Z,97105.81
2022-10-01T06:50:58.774Z,97100.94
2022-10-01T06:53:26.441Z,97107.91
2022-10-01T06:55:52.881Z,97108.63
2022-10-01T06:58:20.969Z,97121.38
2022-10-01T07:00:50.876Z,97120.59
2022-10-01T07:03:18.969Z,97126.91
2022-10-01T07:05:45.470Z,97118.34
2022-10-01T07:08:12.929Z,97110.66
2022-10-01T07:10:39.907Z,97109.28
2022-10-01T07:13:10.957Z,97106.34
2022-10-01T07:15:37.527Z,97109.78
2022-10-01T07:18:04.785Z,97116.69
2022-10-01T07:20:41.666Z,97103.75
2022-10-01T07:23:10.689Z,97102.97
2022-10-01T07:25:38.796Z,97099.59
2022-10-01T07:28:05.920Z,97100.88
2022-10-01T07:30:32.474Z,97110.41
2022-10-01T07:32:59.173Z,97104.47
2022-10-01T07:35:25.645Z,97104.69
2022-10-01T07:37:52.174Z,97106.13
2022-10-01T07:40:18.731Z,97107.13
2022-10-01T07:42:55.340Z,97108.78
2022-10-01T07:45:22.666Z,97111.03
2022-10-01T07:47:55.953Z,97105.81
2022-10-01T07:50:22.717Z,97102.25
2022-10-01T07:52:56.231Z,97110.41
2022-10-01T07:55:23.473Z,97106.09
2022-10-01T07:57:54.062Z,97102.88
2022-10-01T08:00:20.676Z,97110.84
2022-10-01T08:02:48.686Z,97104.13
2022-10-01T08:05:17.992Z,97100.50
2022-10-01T08:07:45.554Z,97097.03
2022-10-01T08:10:12.390Z,97100.50
2022-10-01T08:12:39.157Z,97098.09
2022-10-01T08:15:10.218Z,97096.53
2022-10-01T08:17:37.804Z,97098.41
2022-10-01T08:20:05.116Z,97100.63
2022-10-01T08:22:32.227Z,97102.09
2022-10-01T08:24:58.671Z,97102.88
2022-10-01T08:27:25.937Z,97110.34
2022-10-01T08:29:52.649Z,97112.03
2022-10-01T08:32:19.327Z,97117.69
2022-10-01T08:34:46.579Z,97115.91
2022-10-01T08:37:14.303Z,97112.06
2022-10-01T08:39:40.762Z,97117.41
2022-10-01T08:42:26.134Z,97125.53
2022-10-01T08:44:52.597Z,97121.53
2022-10-01T08:47:38.124Z,97123.81
2022-10-01T08:50:08.386Z,97120.81
2022-10-01T08:52:37.415Z,97123.81
2022-10-01T08:55:10.688Z,97126.13
2022-10-01T08:57:42.834Z,97134.91
2022-10-01T09:00:14.374Z,97125.03
2022-10-01T09:02:42.093Z,97135.13
2022-10-01T09:05:30.207Z,97142.50
2022-10-01T09:08:18.521Z,97134.28
2022-10-01T09:10:48.627Z,97135.91
2022-10-01T09:13:53.010Z,97152.84
2022-10-01T09:16:25.874Z,97149.13
2022-10-01T09:19:07.570Z,97148.13
2022-10-01T09:21:36.974Z,97150.00
2022-10-01T09:24:04.789Z,97147.03
2022-10-01T09:26:31.442Z,97145.47
2022-10-01T09:29:00.059Z,97158.19
2022-10-01T09:31:41.178Z,97155.03
2022-10-01T09:34:23.748Z,97157.19
2022-10-01T09:37:14.687Z,97163.59
2022-10-01T09:39:44.463Z,97158.56
2022-10-01T09:42:10.924Z,97155.59
2022-10-01T09:44:37.639Z,97155.59
2022-10-01T09:47:18.825Z,97167.06
2022-10-01T09:49:46.063Z,97168.34
2022-10-01T09:52:28.700Z,97168.91
2022-10-01T09:55:01.016Z,97168.91
2022-10-01T09:57:27.371Z,97177.72
2022-10-01T10:00:04.129Z,97184.03
2022-10-01T10:02:32.483Z,97184.25
2022-10-01T10:05:08.403Z,97186.34
2022-10-01T10:07:35.184Z,97189.00
2022-10-01T10:10:25.303Z,97184.38
2022-10-01T10:13:26.281Z,97189.97
2022-10-01T10:15:57.381Z,97190.97
2022-10-01T10:18:33.951Z,97191.69
2022-10-01T10:21:02.657Z,97195.13
2022-10-01T10:23:29.423Z,97191.09
2022-10-01T10:26:03.250Z,97191.28
2022-10-01T10:28:44.585Z,97197.72
2022-10-01T10:31:25.408Z,97201.38
2022-10-01T10:34:31.816Z,97201.88
2022-10-01T10:37:04.961Z,97210.38
2022-10-01T10:39:36.529Z,97219.47
2022-10-01T10:42:04.032Z,97208.81
2022-10-01T10:44:35.088Z,97212.53
2022-10-01T10:47:03.461Z,97215.19
2022-10-01T10:49:31.315Z,97212.63
2022-10-01T10:51:59.727Z,97213.91
2022-10-01T10:54:37.523Z,97219.47
2022-10-01T10:57:28.429Z,97223.50
2022-10-01T11:00:11.669Z,97221.69
2022-10-01T11:02:39.811Z,97224.13
2022-10-01T11:05:22.036Z,97225.16
2022-10-01T11:07:50.367Z,97228.31
2022-10-01T11:10:44.039Z,97214.78
2022-10-01T11:13:13.703Z,97214.00
2022-10-01T11:15:45.790Z,97205.50
2022-10-01T11:18:27.447Z,97218.81
2022-10-01T11:21:11.805Z,97220.69
2022-10-01T11:23:44.611Z,97220.38
2022-10-01T11:26:24.054Z,97221.19
2022-10-01T11:29:25.125Z,97232.66
2022-10-01T11:32:03.319Z,97225.88
2022-10-01T11:34:39.411Z,97231.19
2022-10-01T11:37:28.414Z,97225.59
2022-10-01T11:39:55.660Z,97225.06
2022-10-01T11:42:24.713Z,97228.81
2022-10-01T11:44:58.561Z,97228.03
2022-10-01T11:47:33.076Z,97235.25
2022-10-01T11:50:38.496Z,97237.59
2022-10-01T11:53:15.525Z,97216.53
2022-10-01T11:56:06.550Z,97229.06
2022-10-01T11:59:00.749Z,97227.97
2022-10-01T12:01:41.114Z,97228.44
2022-10-01T12:04:32.194Z,97237.81
2022-10-01T12:07:10.798Z,97232.72
2022-10-01T12:10:18.675Z,97224.41
2022-10-01T12:12:54.062Z,97230.22
2022-10-01T12:15:31.220Z,97236.56
2022-10-01T12:18:06.490Z,97225.13
2022-10-01T12:20:45.089Z,97236.09
2022-10-01T12:23:14.628Z,97233.63
2022-10-01T12:26:05.913Z,97232.38
2022-10-01T12:28:37.959Z,97236.13
2022-10-01T12:31:18.541Z,97235.34
2022-10-01T12:34:06.385Z,97241.25
2022-10-01T12:36:45.833Z,97240.75
2022-10-01T12:39:32.201Z,97241.31
2022-10-01T12:42:06.690Z,97247.66
2022-10-01T12:44:45.736Z,97252.69
2022-10-01T12:47:23.061Z,97248.53
2022-10-01T12:50:11.375Z,97252.00
2022-10-01T12:52:50.459Z,97256.44
2022-10-01T12:55:41.666Z,97265.00
2022-10-01T12:59:06.348Z,97272.53
2022-10-01T13:02:04.187Z,97270.41
2022-10-01T13:04:42.659Z,97271.22
2022-10-01T13:07:25.242Z,97276.53
2022-10-01T13:10:07.999Z,97277.94
2022-10-01T13:12:47.181Z,97270.41
2022-10-01T13:15:21.662Z,97277.13
2022-10-01T13:18:09.241Z,97279.50
2022-10-01T13:20:41.156Z,97289.06
2022-10-01T13:23:31.455Z,97291.25
2022-10-01T13:26:05.758Z,97290.72
2022-10-01T13:28:55.934Z,97299.81
2022-10-01T13:31:34.973Z,97296.84
2022-10-01T13:34:02.681Z,97297.16
2022-10-01T13:36:33.789Z,97292.91
2022-10-01T13:39:00.516Z,97302.25
2022-10-01T13:41:29.638Z,97298.38
2022-10-01T13:44:03.066Z,97299.81
2022-10-01T13:46:31.644Z,97308.53
2022-10-01T13:49:07.048Z,97302.63
2022-10-01T13:51:37.345Z,97314.06
2022-10-01T13:54:06.345Z,97311.19
2022-10-01T13:56:36.605Z,97319.88
2022-10-01T13:59:04.483Z,97327.88
2022-10-01T14:01:38.266Z,97326.84
2022-10-01T14:04:09.305Z,97344.97
2022-10-01T14:06:36.193Z,97345.75
2022-10-01T14:09:28.483Z,97348.94
2022-10-01T14:12:33.187Z,97354.53
2022-10-01T14:15:19.384Z,97351.81
2022-10-01T14:17:47.424Z,97472.44
2022-10-01T14:20:23.591Z,97455.66
2022-10-01T14:23:13.703Z,97446.34
2022-10-01T14:25:43.190Z,97440.38
2022-10-01T14:28:16.401Z,97442.75
2022-10-01T14:31:10.776Z,97432.06
2022-10-01T14:33:53.228Z,97436.91
2022-10-01T14:36:29.540Z,97439.28
2022-10-01T14:39:15.273Z,97436.31
2022-10-01T14:41:42.085Z,97445.41
2022-10-01T14:44:26.772Z,97455.78
2022-10-01T14:46:57.303Z,97439.28
2022-10-01T14:49:25.925Z,97427.84
2022-10-01T14:51:55.157Z,97430.78
2022-10-01T14:54:21.827Z,97434.75
2022-10-01T14:56:48.507Z,97443.81
2022-10-01T14:59:27.903Z,97449.72
2022-10-01T15:01:56.953Z,97441.53
2022-10-01T15:04:23.492Z,97442.81
2022-10-01T15:06:50.379Z,97441.72
2022-10-01T15:09:18.903Z,97436.63
2022-10-01T15:11:47.447Z,97438.50
2022-10-01T15:14:19.260Z,97430.50
2022-10-01T15:16:45.760Z,97441.94
2022-10-01T15:19:15.624Z,97444.31
2022-10-01T15:21:41.921Z,97446.19
2022-10-01T15:24:35.561Z,97456.06
2022-10-01T15:27:02.017Z,97456.06
2022-10-01T15:29:28.807Z,97451.09
2022-10-01T15:31:56.350Z,97454.19
2022-10-01T15:34:23.672Z,97470.63
2022-10-01T15:36:50.255Z,97466.16
2022-10-01T15:39:35.887Z,97469.56
2022-10-01T15:42:21.475Z,97480.81
2022-10-01T15:44:49.201Z,97491.50
2022-10-01T15:47:24.858Z,97491.28
2022-10-01T15:50:17.055Z,97492.03
2022-10-01T15:52:53.249Z,97499.00
2022-10-01T15:55:25.393Z,97500.75
2022-10-01T15:57:58.088Z,97503.91
2022-10-01T16:00:26.765Z,97512.13
2022-10-01T16:02:53.285Z,97513.22
2022-10-01T16:05:25.374Z,97510.00
2022-10-01T16:07:58.261Z,97516.91
2022-10-01T16:10:38.292Z,97526.19
2022-10-01T16:13:41.064Z,97532.03
2022-10-01T16:16:13.262Z,97537.38
2022-10-01T16:18:40.221Z,97543.50
2022-10-01T16:21:09.102Z,97549.91
2022-10-01T16:23:36.220Z,97548.84
2022-10-01T16:26:06.791Z,97550.72
2022-10-01T16:28:34.155Z,97546.16
2022-10-01T16:31:01.081Z,97555.50
2022-10-01T16:33:28.442Z,97557.38
2022-10-01T16:36:07.073Z,97556.91
2022-10-01T16:38:33.785Z,97561.44
2022-10-01T16:41:00.491Z,97574.47
2022-10-01T16:43:27.031Z,97571.88
2022-10-01T16:45:53.939Z,97588.34
2022-10-01T16:48:22.284Z,97593.19
2022-10-01T16:50:48.774Z,97590.22
2022-10-01T16:53:16.511Z,97599.66
2022-10-01T16:55:43.134Z,97600.22
2022-10-01T16:58:09.697Z,97612.22
2022-10-01T17:00:37.207Z,97603.69
2022-10-01T17:03:05.414Z,97610.09
2022-10-01T17:05:33.505Z,97615.19
2022-10-01T17:08:04.979Z,97612.75
2022-10-01T17:10:32.553Z,97627.16
2022-10-01T17:12:59.600Z,97625.06
2022-10-01T17:15:27.363Z,97632.25
2022-10-01T17:17:54.395Z,97636.78
2022-10-01T17:20:22.078Z,97644.78
2022-10-01T17:22:49.176Z,97645.59
2022-10-01T17:25:19.754Z,97660.00
2022-10-01T17:27:46.320Z,97660.00
2022-10-01T17:30:12.986Z,97670.66
2022-10-01T17:32:40.161Z,97669.03
2022-10-01T17:35:07.365Z,97670.41
2022-10-01T17:37:35.392Z,97669.88
2022-10-01T17:40:01.947Z,97679.94
2022-10-01T17:42:28.847Z,97693.00
2022-10-01T17:44:55.514Z,97689.53
2022-10-01T17:47:22.015Z,97703.66
2022-10-01T17:49:48.577Z,97704.69
2022-10-01T17:52:15.119Z,97712.13
2022-10-01T17:54:41.570Z,97707.09
2022-10-01T17:57:10.775Z,97712.13
2022-10-01T17:59:37.909Z,97714.78
2022-10-01T18:02:29.624Z,97717.97
2022-10-01T18:04:54.734Z,97716.13
2022-10-01T18:07:21.180Z,97729.44
2022-10-01T18:09:47.630Z,97730.25
2022-10-01T18:12:14.167Z,97745.44
2022-10-01T18:14:41.016Z,97746.25
2022-10-01T18:17:07.844Z,97751.56
2022-10-01T18:22:21.450Z,97767.56
2022-10-01T18:24:47.907Z,97772.13
2022-10-01T18:27:14.787Z,97778.50
2022-10-01T18:29:41.595Z,97788.09
2022-10-01T18:32:22.323Z,97776.13
2022-10-01T18:34:59.669Z,97776.13
2022-10-01T18:37:46.723Z,97775.31
2022-10-01T18:40:28.056Z,97781.72
2022-10-01T18:43:09.331Z,97786.50
2022-10-01T18:46:28.823Z,97790.00
2022-10-01T18:48:58.727Z,97792.78
2022-10-01T18:51:34.214Z,97800.50
2022-10-01T18:54:34.425Z,97803.47
2022-10-01T18:57:05.650Z,97810.41
2022-10-01T18:59:48.250Z,97807.00
2022-10-01T19:02:20.799Z,97820.31
2022-10-01T19:05:01.565Z,97820.06
2022-10-01T19:07:59.530Z,97831.78
2022-10-01T19:10:39.491Z,97831.28
2022-10-01T19:13:13.754Z,97841.66
2022-10-01T19:15:43.006Z,97852.31
2022-10-01T19:18:22.593Z,97844.06
2022-10-01T19:20:58.415Z,97848.31
2022-10-01T19:23:40.078Z,97854.97
2022-10-01T19:26:23.790Z,97854.69
2022-10-01T19:29:12.034Z,97856.53
2022-10-01T19:31:57.776Z,97855.75
2022-10-01T19:34:31.415Z,97865.88
2022-10-01T19:37:03.878Z,97859.94
2022-10-01T19:39:32.309Z,97866.25
2022-10-01T19:42:01.721Z,97880.59
2022-10-01T19:44:36.615Z,97873.66
2022-10-01T19:47:15.665Z,97875.25
2022-10-01T19:49:42.333Z,97880.81
2022-10-01T19:52:12.921Z,97883.75
2022-10-01T19:54:48.821Z,97896.59
2022-10-01T19:57:22.683Z,97892.56
2022-10-01T19:59:50.367Z,97898.41
2022-10-01T20:02:54.653Z,97895.22
2022-10-01T20:05:27.053Z,97906.41
2022-10-01T20:08:17.843Z,97915.44
2022-10-01T20:10:47.707Z,97920.25
2022-10-01T20:13:38.698Z,97926.66
2022-10-01T20:16:26.923Z,97929.81
2022-10-01T20:19:13.781Z,97932.78
2022-10-01T20:21:50.377Z,97938.09
2022-10-01T20:24:28.910Z,97937.28
2022-10-01T20:27:04.175Z,97946.00
2022-10-01T20:29:43.334Z,97953.50
2022-10-01T20:32:14.811Z,97956.16
2022-10-01T20:35:06.143Z,97953.75
2022-10-01T20:37:43.163Z,97962.59
2022-10-01T20:40:41.360Z,97962.84
2022-10-01T20:43:31.379Z,97962.25
2022-10-01T20:45:58.355Z,97963.59
2022-10-01T20:48:32.583Z,97966.81
2022-10-01T20:51:09.535Z,97970.53
2022-10-01T20:53:45.023Z,97971.56
2022-10-01T20:56:19.494Z,97968.41
2022-10-01T20:59:11.399Z,97973.19
2022-10-01T21:01:40.406Z,97982.28
2022-10-01T21:04:13.317Z,97977.16
2022-10-01T21:06:44.323Z,97982.78
2022-10-01T21:09:26.620Z,97983.28
2022-10-01T21:12:00.475Z,97992.13
2022-10-01T21:14:33.921Z,97992.38
2022-10-01T21:17:19.050Z,97996.63
2022-10-01T21:20:02.092Z,97991.88
2022-10-01T21:23:09.618Z,97993.50
2022-10-01T21:25:51.476Z,97989.25
2022-10-01T21:28:41.228Z,98000.78
2022-10-01T21:31:21.847Z,98015.97
2022-10-01T21:34:12.643Z,98022.91
2022-10-01T21:36:55.897Z,98022.13
2022-10-01T21:39:31.805Z,98016.00
2022-10-01T21:42:16.903Z,98017.84
2022-10-01T21:44:58.531Z,98027.13
2022-10-01T21:47:58.959Z,98035.38
2022-10-01T21:51:30.189Z,98035.88
2022-10-01T21:54:17.278Z,98034.59
2022-10-01T21:57:02.087Z,98039.66
2022-10-01T21:59:57.568Z,98034.06
2022-10-01T22:02:27.028Z,98043.16
2022-10-01T22:04:56.165Z,98043.19
2022-10-01T22:07:32.117Z,98044.00
2022-10-01T22:10:16.795Z,98031.72
2022-10-01T22:12:45.442Z,98045.59
2022-10-01T22:15:22.802Z,98050.69
2022-10-01T22:17:50.145Z,98054.69
2022-10-01T22:20:18.003Z,98062.69
2022-10-01T22:22:44.444Z,98076.84
2022-10-01T22:25:13.630Z,98071.50
2022-10-01T22:27:44.192Z,98075.78
2022-10-01T22:30:13.464Z,98070.44
2022-10-01T22:32:50.769Z,98077.09
2022-10-01T22:35:31.258Z,98084.03
2022-10-01T22:38:21.743Z,98074.72
2022-10-01T22:40:51.795Z,98077.13
2022-10-01T22:43:18.314Z,98076.88
2022-10-01T22:45:56.585Z,98081.69
2022-10-01T22:48:36.408Z,98090.75
2022-10-01T22:51:15.474Z,98091.28
2022-10-01T22:53:59.928Z,98092.63
2022-10-01T22:57:02.102Z,98101.69
2022-10-01T22:59:42.133Z,98097.41
2022-10-01T23:02:32.052Z,98102.25
2022-10-01T23:05:12.263Z,98101.97
2022-10-01T23:08:00.507Z,98115.56
2022-10-01T23:11:02.026Z,98115.81
2022-10-01T23:14:10.353Z,98108.91
2022-10-01T23:16:44.692Z,98112.63
2022-10-01T23:19:46.711Z,98122.50
2022-10-01T23:22:31.563Z,98128.34
2022-10-01T23:25:19.545Z,98123.31
2022-10-01T23:28:28.144Z,98121.72
2022-10-01T23:31:23.863Z,98127.28
2022-10-01T23:33:54.744Z,98129.94
2022-10-01T23:36:30.751Z,98131.81
2022-10-01T23:39:37.446Z,98137.66
2022-10-01T23:42:34.792Z,98136.88
2022-10-01T23:45:14.668Z,98144.34
2022-10-01T23:47:50.348Z,98138.47
2022-10-01T23:50:31.788Z,98141.13
2022-10-01T23:53:22.266Z,98146.47
2022-10-01T23:56:11.945Z,98155.53
2022-10-01T23:58:43.501Z,98155.00
